sensor_id;sensor_type;location;lat;lon;timestamp;P1;durP1;ratioP1;P2;durP2;ratioP2
11191;SDS011;5652;48.406;10.820;2024-03-07T00:00:50;555.92;;;51.88;;
11191;SDS011;5652;48.406;10.820;2024-03-07T00:03:19;434.60;;;44.25;;
11191;SDS011;5652;48.406;10.820;2024-03-07T00:05:47;83.40;;;29.67;;
11191;SDS011;5652;48.406;10.820;2024-03-07T00:08:13;65.78;;;29.15;;
11191;SDS011;5652;48.406;10.820;2024-03-07T00:10:40;65.90;;;29.02;;
11191;SDS011;5652;48.406;10.820;2024-03-07T00:13:09;61.10;;;28.87;;
11191;SDS011;5652;48.406;10.820;2024-03-07T00:15:38;60.78;;;27.65;;
11191;SDS011;5652;48.406;10.820;2024-03-07T00:18:06;62.28;;;27.73;;
11191;SDS011;5652;48.406;10.820;2024-03-07T00:20:35;120.50;;;31.77;;
11191;SDS011;5652;48.406;10.820;2024-03-07T00:23:04;122.10;;;32.03;;
11191;SDS011;5652;48.406;10.820;2024-03-07T00:25:34;262.30;;;38.28;;
11191;SDS011;5652;48.406;10.820;2024-03-07T00:28:01;252.27;;;37.07;;
11191;SDS011;5652;48.406;10.820;2024-03-07T00:30:28;435.00;;;47.72;;
11191;SDS011;5652;48.406;10.820;2024-03-07T00:32:55;211.85;;;37.47;;
11191;SDS011;5652;48.406;10.820;2024-03-07T00:35:22;121.35;;;31.77;;
11191;SDS011;5652;48.406;10.820;2024-03-07T00:37:50;133.30;;;32.22;;
11191;SDS011;5652;48.406;10.820;2024-03-07T00:40:18;138.23;;;32.20;;
11191;SDS011;5652;48.406;10.820;2024-03-07T00:42:45;102.10;;;29.65;;
11191;SDS011;5652;48.406;10.820;2024-03-07T00:45:13;54.08;;;26.92;;
11191;SDS011;5652;48.406;10.820;2024-03-07T00:47:40;56.55;;;27.33;;
11191;SDS011;5652;48.406;10.820;2024-03-07T00:50:07;51.58;;;25.15;;
11191;SDS011;5652;48.406;10.820;2024-03-07T00:52:35;57.88;;;27.08;;
11191;SDS011;5652;48.406;10.820;2024-03-07T00:55:02;54.08;;;27.10;;
11191;SDS011;5652;48.406;10.820;2024-03-07T00:57:30;52.15;;;27.23;;
11191;SDS011;5652;48.406;10.820;2024-03-07T00:59:57;59.08;;;27.52;;
11191;SDS011;5652;48.406;10.820;2024-03-07T01:02:24;57.90;;;27.40;;
11191;SDS011;5652;48.406;10.820;2024-03-07T01:04:51;61.03;;;26.48;;
11191;SDS011;5652;48.406;10.820;2024-03-07T01:07:19;60.92;;;27.25;;
11191;SDS011;5652;48.406;10.820;2024-03-07T01:09:48;60.65;;;25.80;;
11191;SDS011;5652;48.406;10.820;2024-03-07T01:12:16;55.72;;;25.95;;
11191;SDS011;5652;48.406;10.820;2024-03-07T01:14:46;59.78;;;26.55;;
11191;SDS011;5652;48.406;10.820;2024-03-07T01:17:13;55.30;;;26.67;;
11191;SDS011;5652;48.406;10.820;2024-03-07T01:19:40;63.93;;;29.57;;
11191;SDS011;5652;48.406;10.820;2024-03-07T01:22:07;61.47;;;30.10;;
11191;SDS011;5652;48.406;10.820;2024-03-07T01:24:34;63.20;;;30.83;;
11191;SDS011;5652;48.406;10.820;2024-03-07T01:27:02;65.20;;;30.58;;
11191;SDS011;5652;48.406;10.820;2024-03-07T01:29:29;68.22;;;29.85;;
11191;SDS011;5652;48.406;10.820;2024-03-07T01:31:58;69.23;;;31.47;;
11191;SDS011;5652;48.406;10.820;2024-03-07T01:34:25;69.80;;;32.22;;
11191;SDS011;5652;48.406;10.820;2024-03-07T01:36:52;75.43;;;33.03;;
11191;SDS011;5652;48.406;10.820;2024-03-07T01:39:19;80.50;;;35.20;;
11191;SDS011;5652;48.406;10.820;2024-03-07T01:41:46;82.32;;;35.53;;
11191;SDS011;5652;48.406;10.820;2024-03-07T01:44:13;84.83;;;37.27;;
11191;SDS011;5652;48.406;10.820;2024-03-07T01:46:41;86.55;;;37.45;;
11191;SDS011;5652;48.406;10.820;2024-03-07T01:49:09;91.70;;;39.93;;
11191;SDS011;5652;48.406;10.820;2024-03-07T01:51:36;95.27;;;40.87;;
11191;SDS011;5652;48.406;10.820;2024-03-07T01:54:05;93.73;;;40.63;;
11191;SDS011;5652;48.406;10.820;2024-03-07T01:56:33;92.83;;;39.87;;
11191;SDS011;5652;48.406;10.820;2024-03-07T01:59:00;99.05;;;40.78;;
11191;SDS011;5652;48.406;10.820;2024-03-07T02:01:28;92.82;;;39.33;;
11191;SDS011;5652;48.406;10.820;2024-03-07T02:03:55;95.85;;;39.72;;
11191;SDS011;5652;48.406;10.820;2024-03-07T02:06:23;107.78;;;40.30;;
11191;SDS011;5652;48.406;10.820;2024-03-07T02:08:51;98.17;;;39.60;;
11191;SDS011;5652;48.406;10.820;2024-03-07T02:11:18;106.63;;;42.13;;
11191;SDS011;5652;48.406;10.820;2024-03-07T02:13:46;104.55;;;43.78;;
11191;SDS011;5652;48.406;10.820;2024-03-07T02:16:13;119.28;;;46.97;;
11191;SDS011;5652;48.406;10.820;2024-03-07T02:18:40;118.90;;;47.42;;
11191;SDS011;5652;48.406;10.820;2024-03-07T02:21:09;122.18;;;47.10;;
11191;SDS011;5652;48.406;10.820;2024-03-07T02:23:36;129.93;;;49.08;;
11191;SDS011;5652;48.406;10.820;2024-03-07T02:26:03;127.05;;;48.80;;
11191;SDS011;5652;48.406;10.820;2024-03-07T02:28:31;139.02;;;50.30;;
11191;SDS011;5652;48.406;10.820;2024-03-07T02:30:58;134.40;;;52.20;;
11191;SDS011;5652;48.406;10.820;2024-03-07T02:33:25;135.05;;;51.30;;
11191;SDS011;5652;48.406;10.820;2024-03-07T02:35:52;140.97;;;54.40;;
11191;SDS011;5652;48.406;10.820;2024-03-07T02:38:21;146.90;;;56.17;;
11191;SDS011;5652;48.406;10.820;2024-03-07T02:40:48;147.50;;;57.42;;
11191;SDS011;5652;48.406;10.820;2024-03-07T02:43:15;156.63;;;58.17;;
11191;SDS011;5652;48.406;10.820;2024-03-07T02:45:43;154.65;;;57.92;;
11191;SDS011;5652;48.406;10.820;2024-03-07T02:48:10;157.00;;;59.63;;
11191;SDS011;5652;48.406;10.820;2024-03-07T02:50:37;149.47;;;57.87;;
11191;SDS011;5652;48.406;10.820;2024-03-07T02:53:04;153.00;;;59.35;;
11191;SDS011;5652;48.406;10.820;2024-03-07T02:55:33;151.75;;;59.05;;
11191;SDS011;5652;48.406;10.820;2024-03-07T02:58:00;147.98;;;57.58;;
11191;SDS011;5652;48.406;10.820;2024-03-07T03:00:27;137.50;;;55.80;;
11191;SDS011;5652;48.406;10.820;2024-03-07T03:02:55;133.73;;;53.75;;
11191;SDS011;5652;48.406;10.820;2024-03-07T03:05:22;136.48;;;53.35;;
11191;SDS011;5652;48.406;10.820;2024-03-07T03:07:50;138.10;;;54.85;;
11191;SDS011;5652;48.406;10.820;2024-03-07T03:10:20;134.43;;;54.38;;
11191;SDS011;5652;48.406;10.820;2024-03-07T03:12:52;138.57;;;56.33;;
11191;SDS011;5652;48.406;10.820;2024-03-07T03:15:20;133.27;;;55.50;;
11191;SDS011;5652;48.406;10.820;2024-03-07T03:17:47;135.40;;;55.87;;
11191;SDS011;5652;48.406;10.820;2024-03-07T03:20:14;141.75;;;57.50;;
11191;SDS011;5652;48.406;10.820;2024-03-07T03:22:50;137.88;;;57.53;;
11191;SDS011;5652;48.406;10.820;2024-03-07T03:25:17;153.25;;;59.08;;
11191;SDS011;5652;48.406;10.820;2024-03-07T03:27:45;147.18;;;59.58;;
11191;SDS011;5652;48.406;10.820;2024-03-07T03:30:13;150.07;;;60.50;;
11191;SDS011;5652;48.406;10.820;2024-03-07T03:32:43;150.45;;;60.92;;
11191;SDS011;5652;48.406;10.820;2024-03-07T03:35:10;145.15;;;59.90;;
11191;SDS011;5652;48.406;10.820;2024-03-07T03:37:38;140.90;;;59.47;;
11191;SDS011;5652;48.406;10.820;2024-03-07T03:40:07;149.27;;;61.22;;
11191;SDS011;5652;48.406;10.820;2024-03-07T03:42:35;145.10;;;61.03;;
11191;SDS011;5652;48.406;10.820;2024-03-07T03:45:03;138.95;;;58.55;;
11191;SDS011;5652;48.406;10.820;2024-03-07T03:47:33;147.25;;;61.45;;
11191;SDS011;5652;48.406;10.820;2024-03-07T03:50:02;142.50;;;62.22;;
11191;SDS011;5652;48.406;10.820;2024-03-07T03:52:29;144.85;;;61.25;;
11191;SDS011;5652;48.406;10.820;2024-03-07T03:54:56;149.77;;;61.58;;
11191;SDS011;5652;48.406;10.820;2024-03-07T03:57:24;142.70;;;60.78;;
11191;SDS011;5652;48.406;10.820;2024-03-07T03:59:51;149.88;;;62.40;;
11191;SDS011;5652;48.406;10.820;2024-03-07T04:02:18;146.38;;;61.47;;
11191;SDS011;5652;48.406;10.820;2024-03-07T04:04:46;139.15;;;60.20;;
11191;SDS011;5652;48.406;10.820;2024-03-07T04:07:13;144.30;;;61.17;;
11191;SDS011;5652;48.406;10.820;2024-03-07T04:09:41;142.13;;;61.75;;
11191;SDS011;5652;48.406;10.820;2024-03-07T04:12:09;141.95;;;61.92;;
11191;SDS011;5652;48.406;10.820;2024-03-07T04:14:36;139.68;;;60.92;;
11191;SDS011;5652;48.406;10.820;2024-03-07T04:17:04;140.85;;;61.50;;
11191;SDS011;5652;48.406;10.820;2024-03-07T04:19:32;141.02;;;60.88;;
11191;SDS011;5652;48.406;10.820;2024-03-07T04:22:01;142.70;;;59.95;;
11191;SDS011;5652;48.406;10.820;2024-03-07T04:24:29;134.13;;;58.83;;
11191;SDS011;5652;48.406;10.820;2024-03-07T04:26:57;137.02;;;59.67;;
11191;SDS011;5652;48.406;10.820;2024-03-07T04:29:25;134.13;;;60.53;;
11191;SDS011;5652;48.406;10.820;2024-03-07T04:31:52;132.00;;;58.72;;
11191;SDS011;5652;48.406;10.820;2024-03-07T04:34:19;133.68;;;59.40;;
11191;SDS011;5652;48.406;10.820;2024-03-07T04:36:46;125.30;;;57.92;;
11191;SDS011;5652;48.406;10.820;2024-03-07T04:39:15;118.60;;;56.95;;
11191;SDS011;5652;48.406;10.820;2024-03-07T04:41:50;121.75;;;57.85;;
11191;SDS011;5652;48.406;10.820;2024-03-07T04:44:18;122.57;;;57.35;;
11191;SDS011;5652;48.406;10.820;2024-03-07T04:46:47;121.17;;;56.87;;
11191;SDS011;5652;48.406;10.820;2024-03-07T04:49:16;122.40;;;57.60;;
11191;SDS011;5652;48.406;10.820;2024-03-07T04:51:43;124.28;;;57.70;;
11191;SDS011;5652;48.406;10.820;2024-03-07T04:54:09;126.70;;;56.97;;
11191;SDS011;5652;48.406;10.820;2024-03-07T04:56:38;119.30;;;56.63;;
11191;SDS011;5652;48.406;10.820;2024-03-07T04:59:06;120.88;;;55.95;;
11191;SDS011;5652;48.406;10.820;2024-03-07T05:01:36;117.68;;;55.70;;
11191;SDS011;5652;48.406;10.820;2024-03-07T05:04:03;111.75;;;55.42;;
11191;SDS011;5652;48.406;10.820;2024-03-07T05:06:31;114.25;;;55.30;;
11191;SDS011;5652;48.406;10.820;2024-03-07T05:08:59;121.00;;;55.97;;
11191;SDS011;5652;48.406;10.820;2024-03-07T05:11:28;121.53;;;56.97;;
11191;SDS011;5652;48.406;10.820;2024-03-07T05:13:57;118.32;;;56.03;;
11191;SDS011;5652;48.406;10.820;2024-03-07T05:16:25;114.38;;;56.35;;
11191;SDS011;5652;48.406;10.820;2024-03-07T05:18:52;115.87;;;56.57;;
11191;SDS011;5652;48.406;10.820;2024-03-07T05:21:20;117.93;;;56.22;;
11191;SDS011;5652;48.406;10.820;2024-03-07T05:24:00;118.03;;;56.33;;
11191;SDS011;5652;48.406;10.820;2024-03-07T05:26:28;117.90;;;55.97;;
11191;SDS011;5652;48.406;10.820;2024-03-07T05:29:00;121.47;;;57.35;;
11191;SDS011;5652;48.406;10.820;2024-03-07T05:31:30;119.38;;;57.75;;
11191;SDS011;5652;48.406;10.820;2024-03-07T05:33:59;127.60;;;58.92;;
11191;SDS011;5652;48.406;10.820;2024-03-07T05:36:28;124.13;;;58.53;;
11191;SDS011;5652;48.406;10.820;2024-03-07T05:38:55;124.22;;;57.80;;
11191;SDS011;5652;48.406;10.820;2024-03-07T05:41:23;128.32;;;59.00;;
11191;SDS011;5652;48.406;10.820;2024-03-07T05:43:53;132.10;;;61.10;;
11191;SDS011;5652;48.406;10.820;2024-03-07T05:46:21;132.75;;;59.58;;
11191;SDS011;5652;48.406;10.820;2024-03-07T05:48:48;137.15;;;61.45;;
11191;SDS011;5652;48.406;10.820;2024-03-07T05:51:20;136.45;;;61.70;;
11191;SDS011;5652;48.406;10.820;2024-03-07T05:53:47;133.98;;;60.63;;
11191;SDS011;5652;48.406;10.820;2024-03-07T05:56:15;135.05;;;60.67;;
11191;SDS011;5652;48.406;10.820;2024-03-07T05:58:42;138.98;;;62.13;;
11191;SDS011;5652;48.406;10.820;2024-03-07T06:01:09;143.82;;;63.65;;
11191;SDS011;5652;48.406;10.820;2024-03-07T06:03:39;139.23;;;61.90;;
11191;SDS011;5652;48.406;10.820;2024-03-07T06:06:06;148.73;;;62.28;;
11191;SDS011;5652;48.406;10.820;2024-03-07T06:08:36;146.93;;;63.22;;
11191;SDS011;5652;48.406;10.820;2024-03-07T06:11:04;152.18;;;63.92;;
11191;SDS011;5652;48.406;10.820;2024-03-07T06:13:31;148.82;;;62.75;;
11191;SDS011;5652;48.406;10.820;2024-03-07T06:15:58;148.40;;;63.65;;
11191;SDS011;5652;48.406;10.820;2024-03-07T06:18:29;145.88;;;63.05;;
11191;SDS011;5652;48.406;10.820;2024-03-07T06:20:59;152.73;;;64.85;;
11191;SDS011;5652;48.406;10.820;2024-03-07T06:23:26;143.63;;;63.58;;
11191;SDS011;5652;48.406;10.820;2024-03-07T06:25:54;143.43;;;62.30;;
11191;SDS011;5652;48.406;10.820;2024-03-07T06:28:23;152.40;;;63.90;;
11191;SDS011;5652;48.406;10.820;2024-03-07T06:30:52;149.30;;;63.72;;
11191;SDS011;5652;48.406;10.820;2024-03-07T06:33:19;146.45;;;64.00;;
11191;SDS011;5652;48.406;10.820;2024-03-07T06:35:47;141.90;;;62.60;;
11191;SDS011;5652;48.406;10.820;2024-03-07T06:38:15;152.63;;;64.88;;
11191;SDS011;5652;48.406;10.820;2024-03-07T06:40:42;143.55;;;61.78;;
11191;SDS011;5652;48.406;10.820;2024-03-07T06:43:09;140.00;;;63.67;;
11191;SDS011;5652;48.406;10.820;2024-03-07T06:45:37;134.02;;;60.97;;
11191;SDS011;5652;48.406;10.820;2024-03-07T06:48:04;122.47;;;58.35;;
11191;SDS011;5652;48.406;10.820;2024-03-07T06:50:32;116.97;;;56.05;;
11191;SDS011;5652;48.406;10.820;2024-03-07T06:53:00;107.82;;;54.45;;
11191;SDS011;5652;48.406;10.820;2024-03-07T06:55:28;95.72;;;51.88;;
11191;SDS011;5652;48.406;10.820;2024-03-07T06:57:55;102.25;;;52.67;;
11191;SDS011;5652;48.406;10.820;2024-03-07T07:00:23;90.47;;;50.80;;
11191;SDS011;5652;48.406;10.820;2024-03-07T07:02:51;84.17;;;48.37;;
11191;SDS011;5652;48.406;10.820;2024-03-07T07:05:20;74.30;;;46.00;;
11191;SDS011;5652;48.406;10.820;2024-03-07T07:07:48;61.83;;;41.47;;
11191;SDS011;5652;48.406;10.820;2024-03-07T07:10:16;54.42;;;37.97;;
11191;SDS011;5652;48.406;10.820;2024-03-07T07:12:45;52.55;;;36.63;;
11191;SDS011;5652;48.406;10.820;2024-03-07T07:15:13;46.33;;;34.13;;
11191;SDS011;5652;48.406;10.820;2024-03-07T07:17:41;44.38;;;33.67;;
11191;SDS011;5652;48.406;10.820;2024-03-07T07:20:10;40.75;;;31.95;;
11191;SDS011;5652;48.406;10.820;2024-03-07T07:22:39;40.03;;;30.88;;
11191;SDS011;5652;48.406;10.820;2024-03-07T07:25:07;38.58;;;30.30;;
11191;SDS011;5652;48.406;10.820;2024-03-07T07:27:38;36.45;;;28.80;;
11191;SDS011;5652;48.406;10.820;2024-03-07T07:30:08;35.50;;;28.38;;
11191;SDS011;5652;48.406;10.820;2024-03-07T07:32:35;36.07;;;28.07;;
11191;SDS011;5652;48.406;10.820;2024-03-07T07:35:02;34.95;;;28.00;;
11191;SDS011;5652;48.406;10.820;2024-03-07T07:37:30;35.73;;;29.37;;
11191;SDS011;5652;48.406;10.820;2024-03-07T07:39:57;35.47;;;28.50;;
11191;SDS011;5652;48.406;10.820;2024-03-07T07:42:25;35.75;;;27.83;;
11191;SDS011;5652;48.406;10.820;2024-03-07T07:44:53;33.28;;;27.92;;
11191;SDS011;5652;48.406;10.820;2024-03-07T07:47:21;34.20;;;27.77;;
11191;SDS011;5652;48.406;10.820;2024-03-07T07:49:48;34.90;;;27.85;;
11191;SDS011;5652;48.406;10.820;2024-03-07T07:52:15;34.33;;;27.42;;
11191;SDS011;5652;48.406;10.820;2024-03-07T07:54:43;34.08;;;27.92;;
11191;SDS011;5652;48.406;10.820;2024-03-07T07:57:10;34.70;;;28.35;;
11191;SDS011;5652;48.406;10.820;2024-03-07T07:59:37;34.88;;;27.95;;
11191;SDS011;5652;48.406;10.820;2024-03-07T08:02:05;33.55;;;27.95;;
11191;SDS011;5652;48.406;10.820;2024-03-07T08:04:33;37.20;;;28.98;;
11191;SDS011;5652;48.406;10.820;2024-03-07T08:07:00;36.08;;;28.08;;
11191;SDS011;5652;48.406;10.820;2024-03-07T08:09:30;36.05;;;29.42;;
11191;SDS011;5652;48.406;10.820;2024-03-07T08:11:57;36.22;;;29.35;;
11191;SDS011;5652;48.406;10.820;2024-03-07T08:14:27;38.42;;;31.42;;
11191;SDS011;5652;48.406;10.820;2024-03-07T08:16:54;37.90;;;30.45;;
11191;SDS011;5652;48.406;10.820;2024-03-07T08:19:22;38.30;;;30.92;;
11191;SDS011;5652;48.406;10.820;2024-03-07T08:21:50;36.20;;;29.40;;
11191;SDS011;5652;48.406;10.820;2024-03-07T08:24:17;37.90;;;30.77;;
11191;SDS011;5652;48.406;10.820;2024-03-07T08:26:45;37.90;;;30.45;;
11191;SDS011;5652;48.406;10.820;2024-03-07T08:29:13;35.47;;;29.80;;
11191;SDS011;5652;48.406;10.820;2024-03-07T08:31:41;38.53;;;31.25;;
11191;SDS011;5652;48.406;10.820;2024-03-07T08:34:09;37.65;;;31.42;;
11191;SDS011;5652;48.406;10.820;2024-03-07T08:36:43;38.65;;;31.23;;
11191;SDS011;5652;48.406;10.820;2024-03-07T08:39:13;39.20;;;29.90;;
11191;SDS011;5652;48.406;10.820;2024-03-07T08:41:40;39.65;;;31.45;;
11191;SDS011;5652;48.406;10.820;2024-03-07T08:44:11;39.78;;;31.45;;
11191;SDS011;5652;48.406;10.820;2024-03-07T08:46:39;40.13;;;31.17;;
11191;SDS011;5652;48.406;10.820;2024-03-07T08:49:08;40.35;;;31.85;;
11191;SDS011;5652;48.406;10.820;2024-03-07T08:51:37;39.80;;;31.40;;
11191;SDS011;5652;48.406;10.820;2024-03-07T08:54:05;39.42;;;30.48;;
11191;SDS011;5652;48.406;10.820;2024-03-07T08:56:41;38.58;;;30.98;;
11191;SDS011;5652;48.406;10.820;2024-03-07T08:59:08;38.67;;;30.95;;
11191;SDS011;5652;48.406;10.820;2024-03-07T09:01:40;38.90;;;31.48;;
11191;SDS011;5652;48.406;10.820;2024-03-07T09:04:09;40.22;;;32.25;;
11191;SDS011;5652;48.406;10.820;2024-03-07T09:06:36;41.10;;;32.67;;
11191;SDS011;5652;48.406;10.820;2024-03-07T09:09:06;38.72;;;32.40;;
11191;SDS011;5652;48.406;10.820;2024-03-07T09:11:34;40.57;;;32.17;;
11191;SDS011;5652;48.406;10.820;2024-03-07T09:14:03;39.45;;;32.35;;
11191;SDS011;5652;48.406;10.820;2024-03-07T09:16:34;41.13;;;31.13;;
11191;SDS011;5652;48.406;10.820;2024-03-07T09:19:02;39.53;;;31.33;;
11191;SDS011;5652;48.406;10.820;2024-03-07T09:21:30;41.15;;;31.02;;
11191;SDS011;5652;48.406;10.820;2024-03-07T09:23:58;50.58;;;38.33;;
11191;SDS011;5652;48.406;10.820;2024-03-07T09:26:29;42.63;;;34.25;;
11191;SDS011;5652;48.406;10.820;2024-03-07T09:28:57;41.65;;;32.45;;
11191;SDS011;5652;48.406;10.820;2024-03-07T09:31:27;38.65;;;30.27;;
11191;SDS011;5652;48.406;10.820;2024-03-07T09:33:56;38.08;;;29.40;;
11191;SDS011;5652;48.406;10.820;2024-03-07T09:36:24;37.47;;;30.05;;
11191;SDS011;5652;48.406;10.820;2024-03-07T09:38:51;41.47;;;31.52;;
11191;SDS011;5652;48.406;10.820;2024-03-07T09:41:27;37.17;;;29.58;;
11191;SDS011;5652;48.406;10.820;2024-03-07T09:43:54;35.42;;;28.67;;
11191;SDS011;5652;48.406;10.820;2024-03-07T09:46:21;35.73;;;28.03;;
11191;SDS011;5652;48.406;10.820;2024-03-07T09:48:51;36.28;;;27.73;;
11191;SDS011;5652;48.406;10.820;2024-03-07T09:51:19;35.97;;;28.95;;
11191;SDS011;5652;48.406;10.820;2024-03-07T09:53:46;33.13;;;27.13;;
11191;SDS011;5652;48.406;10.820;2024-03-07T09:56:16;36.27;;;28.77;;
11191;SDS011;5652;48.406;10.820;2024-03-07T09:58:46;37.47;;;27.60;;
11191;SDS011;5652;48.406;10.820;2024-03-07T10:01:15;34.97;;;28.42;;
11191;SDS011;5652;48.406;10.820;2024-03-07T10:03:43;36.63;;;27.70;;
11191;SDS011;5652;48.406;10.820;2024-03-07T10:06:13;35.37;;;28.93;;
11191;SDS011;5652;48.406;10.820;2024-03-07T10:08:41;38.20;;;29.83;;
11191;SDS011;5652;48.406;10.820;2024-03-07T10:11:18;39.17;;;30.25;;
11191;SDS011;5652;48.406;10.820;2024-03-07T10:13:46;37.95;;;31.23;;
11191;SDS011;5652;48.406;10.820;2024-03-07T10:16:15;38.83;;;31.00;;
11191;SDS011;5652;48.406;10.820;2024-03-07T10:18:43;40.03;;;31.27;;
11191;SDS011;5652;48.406;10.820;2024-03-07T10:21:14;38.37;;;30.80;;
11191;SDS011;5652;48.406;10.820;2024-03-07T10:23:44;37.03;;;30.27;;
11191;SDS011;5652;48.406;10.820;2024-03-07T10:26:12;36.53;;;28.92;;
11191;SDS011;5652;48.406;10.820;2024-03-07T10:28:52;37.70;;;30.20;;
11191;SDS011;5652;48.406;10.820;2024-03-07T10:31:27;34.88;;;28.27;;
11191;SDS011;5652;48.406;10.820;2024-03-07T10:33:57;36.33;;;28.67;;
11191;SDS011;5652;48.406;10.820;2024-03-07T10:36:24;36.88;;;28.35;;
11191;SDS011;5652;48.406;10.820;2024-03-07T10:38:53;34.40;;;26.98;;
11191;SDS011;5652;48.406;10.820;2024-03-07T10:41:21;31.88;;;26.52;;
11191;SDS011;5652;48.406;10.820;2024-03-07T10:43:52;32.20;;;26.25;;
11191;SDS011;5652;48.406;10.820;2024-03-07T10:46:24;35.50;;;26.90;;
11191;SDS011;5652;48.406;10.820;2024-03-07T10:48:53;33.13;;;26.97;;
11191;SDS011;5652;48.406;10.820;2024-03-07T10:51:24;34.72;;;26.75;;
11191;SDS011;5652;48.406;10.820;2024-03-07T10:53:56;33.73;;;26.73;;
11191;SDS011;5652;48.406;10.820;2024-03-07T10:56:28;34.03;;;26.90;;
11191;SDS011;5652;48.406;10.820;2024-03-07T10:59:01;36.00;;;26.42;;
11191;SDS011;5652;48.406;10.820;2024-03-07T11:01:32;36.47;;;27.63;;
11191;SDS011;5652;48.406;10.820;2024-03-07T11:03:59;31.63;;;25.60;;
11191;SDS011;5652;48.406;10.820;2024-03-07T11:06:29;32.65;;;26.15;;
11191;SDS011;5652;48.406;10.820;2024-03-07T11:08:59;33.17;;;26.35;;
11191;SDS011;5652;48.406;10.820;2024-03-07T11:11:35;31.17;;;25.52;;
11191;SDS011;5652;48.406;10.820;2024-03-07T11:14:03;30.60;;;24.75;;
11191;SDS011;5652;48.406;10.820;2024-03-07T11:16:31;30.98;;;25.50;;
11191;SDS011;5652;48.406;10.820;2024-03-07T11:19:17;29.45;;;23.60;;
11191;SDS011;5652;48.406;10.820;2024-03-07T11:21:46;30.35;;;24.23;;
11191;SDS011;5652;48.406;10.820;2024-03-07T11:24:22;29.42;;;23.83;;
11191;SDS011;5652;48.406;10.820;2024-03-07T11:26:50;30.92;;;24.60;;
11191;SDS011;5652;48.406;10.820;2024-03-07T11:32:09;28.77;;;23.70;;
11191;SDS011;5652;48.406;10.820;2024-03-07T11:34:40;31.00;;;23.95;;
11191;SDS011;5652;48.406;10.820;2024-03-07T11:37:08;28.80;;;23.75;;
11191;SDS011;5652;48.406;10.820;2024-03-07T11:39:42;26.98;;;22.45;;
11191;SDS011;5652;48.406;10.820;2024-03-07T11:42:18;29.15;;;22.85;;
11191;SDS011;5652;48.406;10.820;2024-03-07T11:44:47;27.65;;;22.20;;
11191;SDS011;5652;48.406;10.820;2024-03-07T11:47:17;25.73;;;21.67;;
11191;SDS011;5652;48.406;10.820;2024-03-07T11:49:45;27.13;;;22.20;;
11191;SDS011;5652;48.406;10.820;2024-03-07T11:52:14;25.40;;;20.77;;
11191;SDS011;5652;48.406;10.820;2024-03-07T11:54:42;24.27;;;20.23;;
11191;SDS011;5652;48.406;10.820;2024-03-07T11:57:12;24.40;;;19.67;;
11191;SDS011;5652;48.406;10.820;2024-03-07T11:59:40;23.98;;;19.75;;
11191;SDS011;5652;48.406;10.820;2024-03-07T12:02:10;24.35;;;20.00;;
11191;SDS011;5652;48.406;10.820;2024-03-07T12:04:40;25.77;;;20.75;;
11191;SDS011;5652;48.406;10.820;2024-03-07T12:07:07;25.15;;;20.52;;
11191;SDS011;5652;48.406;10.820;2024-03-07T12:09:38;23.58;;;18.75;;
11191;SDS011;5652;48.406;10.820;2024-03-07T12:12:10;24.38;;;19.48;;
11191;SDS011;5652;48.406;10.820;2024-03-07T12:14:38;23.70;;;20.08;;
11191;SDS011;5652;48.406;10.820;2024-03-07T12:17:05;26.07;;;19.63;;
11191;SDS011;5652;48.406;10.820;2024-03-07T12:19:32;26.85;;;20.55;;
11191;SDS011;5652;48.406;10.820;2024-03-07T12:22:03;24.35;;;19.70;;
11191;SDS011;5652;48.406;10.820;2024-03-07T12:24:30;25.10;;;19.90;;
11191;SDS011;5652;48.406;10.820;2024-03-07T12:29:42;25.35;;;19.92;;
11191;SDS011;5652;48.406;10.820;2024-03-07T12:32:13;26.00;;;20.58;;
11191;SDS011;5652;48.406;10.820;2024-03-07T12:34:40;25.13;;;20.08;;
11191;SDS011;5652;48.406;10.820;2024-03-07T12:37:14;26.07;;;19.90;;
11191;SDS011;5652;48.406;10.820;2024-03-07T12:39:44;23.17;;;18.58;;
11191;SDS011;5652;48.406;10.820;2024-03-07T12:42:12;21.73;;;15.40;;
11191;SDS011;5652;48.406;10.820;2024-03-07T12:44:40;19.13;;;14.52;;
11191;SDS011;5652;48.406;10.820;2024-03-07T12:47:11;19.00;;;14.50;;
11191;SDS011;5652;48.406;10.820;2024-03-07T12:49:38;18.35;;;14.65;;
11191;SDS011;5652;48.406;10.820;2024-03-07T12:52:06;18.70;;;15.15;;
11191;SDS011;5652;48.406;10.820;2024-03-07T12:54:35;20.35;;;15.73;;
11191;SDS011;5652;48.406;10.820;2024-03-07T12:57:06;18.88;;;15.30;;
11191;SDS011;5652;48.406;10.820;2024-03-07T12:59:34;19.92;;;16.08;;
11191;SDS011;5652;48.406;10.820;2024-03-07T13:02:02;20.95;;;17.08;;
11191;SDS011;5652;48.406;10.820;2024-03-07T13:04:31;22.52;;;17.17;;
11191;SDS011;5652;48.406;10.820;2024-03-07T13:06:58;20.52;;;17.35;;
11191;SDS011;5652;48.406;10.820;2024-03-07T13:09:29;23.13;;;18.97;;
11191;SDS011;5652;48.406;10.820;2024-03-07T13:11:57;23.15;;;18.60;;
11191;SDS011;5652;48.406;10.820;2024-03-07T13:14:25;22.97;;;18.63;;
11191;SDS011;5652;48.406;10.820;2024-03-07T13:16:55;25.02;;;18.63;;
11191;SDS011;5652;48.406;10.820;2024-03-07T13:19:25;23.15;;;18.15;;
11191;SDS011;5652;48.406;10.820;2024-03-07T13:21:52;25.53;;;19.97;;
11191;SDS011;5652;48.406;10.820;2024-03-07T13:24:19;35.03;;;24.95;;
11191;SDS011;5652;48.406;10.820;2024-03-07T13:26:46;30.05;;;22.58;;
11191;SDS011;5652;48.406;10.820;2024-03-07T13:29:15;23.40;;;18.50;;
11191;SDS011;5652;48.406;10.820;2024-03-07T13:31:48;26.55;;;21.38;;
11191;SDS011;5652;48.406;10.820;2024-03-07T13:34:15;21.92;;;17.17;;
11191;SDS011;5652;48.406;10.820;2024-03-07T13:36:43;21.60;;;17.30;;
11191;SDS011;5652;48.406;10.820;2024-03-07T13:39:10;20.70;;;17.07;;
11191;SDS011;5652;48.406;10.820;2024-03-07T13:41:39;24.00;;;18.17;;
11191;SDS011;5652;48.406;10.820;2024-03-07T13:44:06;22.38;;;17.77;;
11191;SDS011;5652;48.406;10.820;2024-03-07T13:46:35;25.20;;;19.47;;
11191;SDS011;5652;48.406;10.820;2024-03-07T13:49:02;22.92;;;17.45;;
11191;SDS011;5652;48.406;10.820;2024-03-07T13:51:37;22.10;;;16.90;;
11191;SDS011;5652;48.406;10.820;2024-03-07T13:54:14;20.42;;;15.45;;
11191;SDS011;5652;48.406;10.820;2024-03-07T13:57:01;18.75;;;14.90;;
11191;SDS011;5652;48.406;10.820;2024-03-07T14:02:40;20.00;;;15.05;;
11191;SDS011;5652;48.406;10.820;2024-03-07T14:05:34;19.20;;;15.30;;
11191;SDS011;5652;48.406;10.820;2024-03-07T14:08:13;19.83;;;15.63;;
11191;SDS011;5652;48.406;10.820;2024-03-07T14:13:34;16.80;;;13.00;;
11191;SDS011;5652;48.406;10.820;2024-03-07T14:16:13;16.42;;;12.80;;
11191;SDS011;5652;48.406;10.820;2024-03-07T14:21:47;16.67;;;12.35;;
11191;SDS011;5652;48.406;10.820;2024-03-07T14:24:25;15.25;;;12.32;;
11191;SDS011;5652;48.406;10.820;2024-03-07T14:27:10;15.48;;;12.43;;
11191;SDS011;5652;48.406;10.820;2024-03-07T14:29:44;17.25;;;12.13;;
11191;SDS011;5652;48.406;10.820;2024-03-07T14:32:14;16.53;;;12.33;;
11191;SDS011;5652;48.406;10.820;2024-03-07T14:34:47;18.08;;;13.88;;
11191;SDS011;5652;48.406;10.820;2024-03-07T14:37:19;17.90;;;14.10;;
11191;SDS011;5652;48.406;10.820;2024-03-07T14:39:49;17.60;;;13.32;;